Time;durP1;ratioP1;P1;durP2;ratioP2;P2;SDS_P1;SDS_P2;PMS_P1;PMS_P2;Temp;Humidity;BMP_temperature;BMP_pressure;BME280_temperature;BME280_humidity;BME280_pressure;Samples;Min_cycle;Max_cycle;Signal;HPM_P1;HPM_P2
2021/10/23 00:00:47;;;;;;;24.97;12.30;;;;;;;11.75;76.39;100352.75;30782815;28;20039;-76
2021/10/23 00:15:50;;;;;;;27.63;13.10;;;;;;;11.76;76.48;100319.75;30817073;28;20047;-76
2021/10/23 00:30:52;;;;;;;22.40;13.70;;;;;;;11.53;77.68;100300.78;30763705;28;20059;-76
2021/10/23 00:45:54;;;;;;;23.43;13.80;;;;;;;11.37;79.06;100287.88;30759473;28;20046;-76
2021/10/23 01:00:56;;;;;;;26.90;15.10;;;;;;;11.26;80.40;100274.50;30749195;28;20066;-77
2021/10/23 01:15:58;;;;;;;27.73;15.10;;;;;;;11.17;80.92;100296.03;30759172;28;20082;-77
2021/10/23 01:30:59;;;;;;;31.30;16.00;;;;;;;11.14;81.70;100290.66;30758963;28;20051;-75
2021/10/23 01:46:02;;;;;;;27.63;14.53;;;;;;;10.97;82.31;100287.09;30770704;28;20381;-76
2021/10/23 02:01:04;;;;;;;23.50;14.63;;;;;;;10.97;83.97;100299.91;30758081;28;20507;-76
2021/10/23 02:16:07;;;;;;;28.07;16.67;;;;;;;10.85;84.55;100295.84;30791554;28;20149;-76
2021/10/23 02:31:09;;;;;;;27.63;14.13;;;;;;;10.87;84.90;100301.63;30753882;28;20047;-77
2021/10/23 02:46:10;;;;;;;31.57;15.73;;;;;;;10.68;85.62;100296.91;30786551;28;20075;-77
2021/10/23 03:01:12;;;;;;;28.47;14.40;;;;;;;10.51;87.54;100309.59;30785323;28;20082;-75
2021/10/23 03:16:15;;;;;;;24.27;15.90;;;;;;;10.49;89.15;100311.97;30755749;28;20062;-76
2021/10/23 03:31:17;;;;;;;32.20;16.83;;;;;;;10.44;92.25;100299.63;30774493;28;20054;-75
2021/10/23 03:46:18;;;;;;;30.57;14.63;;;;;;;10.23;93.74;100278.25;30824812;28;20066;-76
2021/10/23 04:01:20;;;;;;;38.83;16.23;;;;;;;10.30;93.60;100299.84;30779299;28;20055;-76
2021/10/23 04:16:22;;;;;;;46.53;17.37;;;;;;;10.15;95.27;100309.38;30818903;28;20063;-77
2021/10/23 04:31:24;;;;;;;55.00;19.57;;;;;;;10.30;96.51;100327.00;30802859;28;20070;-76
2021/10/23 04:46:26;;;;;;;49.90;17.87;;;;;;;10.33;97.39;100328.88;30795562;28;20392;-77
2021/10/23 05:01:28;;;;;;;50.63;18.83;;;;;;;10.52;98.64;100355.34;30757775;28;20047;-75
2021/10/23 05:16:30;;;;;;;40.87;18.70;;;;;;;10.96;99.65;100372.47;30773500;28;20062;-77
2021/10/23 05:31:32;;;;;;;38.60;17.77;;;;;;;11.34;99.14;100402.13;30760479;28;20043;-77
2021/10/23 05:46:34;;;;;;;38.73;19.00;;;;;;;11.64;97.35;100423.66;30766087;28;20074;-76
2021/10/23 06:01:37;;;;;;;47.00;20.17;;;;;;;11.91;96.05;100435.22;30728533;28;20558;-75
2021/10/23 06:16:41;;;;;;;45.53;23.20;;;;;;;12.34;94.20;100450.66;30748184;28;20527;-77
2021/10/23 06:31:43;;;;;;;39.93;18.93;;;;;;;12.83;90.29;100437.88;30746954;28;20468;-74
2021/10/23 06:46:45;;;;;;;33.97;18.17;;;;;;;13.04;86.57;100439.34;30715507;28;20062;-76
2021/10/23 07:01:47;;;;;;;29.10;17.57;;;;;;;13.10;84.50;100434.13;30741287;28;20703;-74
2021/10/23 07:16:49;;;;;;;29.97;15.07;;;;;;;13.31;82.01;100442.56;30739890;28;20063;-74
2021/10/23 07:31:51;;;;;;;27.20;15.30;;;;;;;13.35;80.15;100449.91;30787578;28;20047;-75
2021/10/23 07:46:53;;;;;;;32.27;18.43;;;;;;;13.38;77.78;100440.88;30792974;28;20494;-74
2021/10/23 08:02:07;;;;;;;27.20;15.83;;;;;;;13.50;76.25;100467.44;30786920;28;20062;-74
2021/10/23 08:17:10;;;;;;;33.63;17.13;;;;;;;13.49;77.31;100474.06;30765618;28;20116;-75
2021/10/23 08:32:15;;;;;;;31.43;16.90;;;;;;;13.56;76.36;100490.25;30812194;28;20049;-75
2021/10/23 08:47:17;;;;;;;;;;;;;;;13.76;74.05;100501.81;30763872;28;20090;-76
2021/10/23 09:02:21;;;;;;;43.83;24.10;;;;;;;13.72;74.63;100501.13;30775639;28;19933;-77
2021/10/23 09:17:23;;;;;;;29.00;13.37;;;;;;;13.69;73.87;100496.56;30753063;28;20471;-76
2021/10/23 09:32:33;;;;;;;23.60;13.27;;;;;;;13.86;71.98;100494.56;30725110;28;20055;-77
2021/10/23 09:47:47;;;;;;;25.33;14.63;;;;;;;13.94;70.21;100493.91;30731500;28;20055;-76
2021/10/23 10:02:51;;;;;;;32.17;16.37;;;;;;;14.08;70.15;100505.66;30755020;28;20384;-75
2021/10/23 10:17:53;;;;;;;29.83;16.10;;;;;;;14.10;69.53;100516.91;30773825;28;20138;-75
2021/10/23 10:33:20;;;;;;;22.47;13.30;;;;;;;13.94;69.45;100502.09;30739640;28;20579;-76
2021/10/23 10:48:25;;;;;;;43.83;19.20;;;;;;;13.95;69.40;100498.16;30722354;28;20048;-75
2021/10/23 11:03:40;;;;;;;30.30;15.07;;;;;;;14.09;65.66;100507.19;30771280;28;20059;-76
2021/10/23 11:18:42;;;;;;;24.70;13.03;;;;;;;14.17;66.60;100511.25;30743706;28;20074;-75
2021/10/23 11:33:44;;;;;;;29.27;13.77;;;;;;;14.16;65.40;100518.69;30764369;28;20460;-76
2021/10/23 11:48:59;;;;;;;31.80;17.00;;;;;;;14.13;65.74;100524.25;30777642;28;20062;-75
2021/10/23 12:04:01;;;;;;;34.90;17.43;;;;;;;14.07;66.35;100515.03;30761531;28;20065;-76
2021/10/23 12:19:08;;;;;;;29.43;15.23;;;;;;;13.78;69.71;100510.34;30738875;28;20419;-76
2021/10/23 12:34:09;;;;;;;44.10;19.37;;;;;;;13.59;73.80;100519.41;30746162;28;20055;-75
2021/10/23 12:49:12;;;;;;;40.80;19.43;;;;;;;13.48;75.76;100518.91;30733281;28;20513;-76
2021/10/23 13:04:18;;;;;;;34.47;18.13;;;;;;;13.31;77.18;100527.09;30736896;28;20051;-75
2021/10/23 13:19:20;;;;;;;34.73;16.57;;;;;;;13.20;77.60;100532.06;30762129;28;20055;-78
2021/10/23 13:34:22;;;;;;;37.60;19.53;;;;;;;13.04;78.51;100532.00;30750271;28;20055;-78
2021/10/23 13:49:24;;;;;;;45.03;22.40;;;;;;;13.04;78.20;100533.94;30739095;28;20053;-75
2021/10/23 14:04:26;;;;;;;38.80;18.70;;;;;;;12.85;77.21;100565.50;30731682;28;20057;-76
2021/10/23 14:19:28;;;;;;;34.87;17.70;;;;;;;12.83;77.40;100567.91;30746271;28;20415;-82
2021/10/23 14:34:29;;;;;;;39.47;16.77;;;;;;;12.77;76.46;100575.03;30753669;28;20080;-77
2021/10/23 14:49:31;;;;;;;37.00;18.30;;;;;;;12.57;75.67;100586.72;30783185;28;20051;-79
2021/10/23 15:04:34;;;;;;;50.57;22.03;;;;;;;12.33;75.81;100601.56;30767707;28;20157;-82
2021/10/23 15:19:36;;;;;;;74.73;27.47;;;;;;;12.08;76.55;100617.59;30766128;28;20055;-79
2021/10/23 15:34:38;;;;;;;50.90;24.17;;;;;;;12.00;77.10;100644.19;30768538;28;20077;-79
2021/10/23 15:49:41;;;;;;;46.63;20.57;;;;;;;11.94;76.71;100657.47;30779055;28;20079;-77
2021/10/23 16:04:43;;;;;;;44.50;18.20;;;;;;;11.82;76.68;100671.66;30769259;28;20476;-77
2021/10/23 16:19:44;;;;;;;39.80;17.87;;;;;;;11.81;76.48;100702.00;30752374;28;20055;-80
2021/10/23 16:34:46;;;;;;;36.27;17.40;;;;;;;11.77;76.51;100702.06;30769171;28;20047;-79
2021/10/23 16:49:49;;;;;;;44.07;19.50;;;;;;;11.79;76.15;100723.41;30766259;28;20054;-76
2021/10/23 17:04:50;;;;;;;39.70;17.50;;;;;;;11.71;76.35;100725.41;30766768;28;20416;-76
2021/10/23 17:19:52;;;;;;;38.83;19.33;;;;;;;11.54;76.80;100737.31;30770558;28;20561;-80
2021/10/23 17:34:54;;;;;;;53.90;26.27;;;;;;;11.35;77.23;100748.81;30786442;28;20500;-81
2021/10/23 17:49:56;;;;;;;34.93;15.93;;;;;;;11.19;77.16;100752.91;30749776;28;20545;-79
2021/10/23 18:04:58;;;;;;;25.13;14.60;;;;;;;11.33;74.99;100764.78;30767028;28;20079;-79
2021/10/23 18:20:06;;;;;;;28.43;13.63;;;;;;;11.38;72.85;100781.41;30756166;28;20055;-79
2021/10/23 18:35:08;;;;;;;36.43;14.80;;;;;;;11.24;71.83;100801.38;30752020;28;20571;-78
2021/10/23 18:50:10;;;;;;;22.73;10.97;;;;;;;11.18;69.09;100832.88;30731421;28;20047;-79
2021/10/23 19:05:12;;;;;;;29.10;14.60;;;;;;;11.07;68.15;100845.81;30738048;28;20051;-76
2021/10/23 19:20:15;;;;;;;27.53;12.90;;;;;;;10.65;68.78;100843.47;30759168;28;20055;-82
2021/10/23 19:35:18;;;;;;;30.93;16.03;;;;;;;10.27;69.00;100858.88;30798429;28;20047;-81
2021/10/23 19:50:20;;;;;;;32.27;15.70;;;;;;;9.97;69.14;100867.53;30779050;28;20043;-76
2021/10/23 20:05:22;;;;;;;35.90;16.70;;;;;;;9.85;68.78;100880.38;30767602;28;20053;-75
2021/10/23 20:20:24;;;;;;;37.37;17.70;;;;;;;9.82;68.93;100883.88;30776662;28;20059;-75
2021/10/23 20:35:27;;;;;;;34.40;16.63;;;;;;;9.71;68.62;100887.78;30788810;28;20614;-74
2021/10/23 20:50:29;;;;;;;31.47;16.50;;;;;;;9.52;68.77;100889.00;30771045;28;20039;-74
2021/10/23 21:05:31;;;;;;;37.83;17.53;;;;;;;9.29;68.57;100910.34;30768152;28;20054;-74
2021/10/23 21:20:33;;;;;;;34.87;17.83;;;;;;;9.22;68.21;100917.31;30737787;28;20054;-73
2021/10/23 21:35:36;;;;;;;26.80;14.13;;;;;;;9.05;68.13;100931.66;30774422;28;20051;-72
2021/10/23 21:50:38;;;;;;;27.07;13.70;;;;;;;8.83;68.64;100943.66;30765169;28;20523;-73
2021/10/23 22:05:40;;;;;;;28.77;14.93;;;;;;;8.68;69.38;100958.34;30778887;28;20871;-73
2021/10/23 22:20:42;;;;;;;33.30;16.57;;;;;;;8.46;69.00;100965.63;30779242;28;20065;-72
2021/10/23 22:35:44;;;;;;;29.07;13.47;;;;;;;8.24;69.44;100986.41;30754946;28;20404;-73
2021/10/23 22:50:46;;;;;;;23.60;13.33;;;;;;;8.08;69.49;100978.59;30737735;28;20086;-74
2021/10/23 23:05:48;;;;;;;30.53;13.17;;;;;;;7.92;69.01;100977.34;30823246;28;20055;-73
2021/10/23 23:20:50;;;;;;;26.23;14.73;;;;;;;7.75;68.97;100971.50;30763213;28;20055;-74
2021/10/23 23:35:51;;;;;;;35.83;15.83;;;;;;;7.64;69.28;100989.56;30792523;28;20043;-72
2021/10/23 23:50:53;;;;;;;36.07;18.90;;;;;;;7.51;69.41;100996.44;30765626;28;20062;-74
